sensor_id;sensor_type;location;lat;lon;timestamp;P1;durP1;ratioP1;P2;durP2;ratioP2
579;SDS011;276;48.392;9.950;2024-03-23T00:54:11;5.07;;;3.90;;
579;SDS011;276;48.392;9.950;2024-03-23T00:56:37;3.60;;;3.07;;
579;SDS011;276;48.392;9.950;2024-03-23T00:59:02;5.33;;;3.63;;
579;SDS011;276;48.392;9.950;2024-03-23T01:01:32;4.03;;;3.73;;
579;SDS011;276;48.392;9.950;2024-03-23T01:03:58;4.23;;;3.60;;
579;SDS011;276;48.392;9.950;2024-03-23T01:06:24;3.77;;;3.37;;
579;SDS011;276;48.392;9.950;2024-03-23T01:08:49;3.93;;;3.20;;
579;SDS011;276;48.392;9.950;2024-03-23T01:11:15;4.83;;;3.60;;
579;SDS011;276;48.392;9.950;2024-03-23T01:13:41;3.70;;;3.40;;
579;SDS011;276;48.392;9.950;2024-03-23T01:16:06;5.50;;;3.47;;
579;SDS011;276;48.392;9.950;2024-03-23T01:18:34;4.93;;;3.40;;
579;SDS011;276;48.392;9.950;2024-03-23T01:21:00;3.60;;;3.30;;
579;SDS011;276;48.392;9.950;2024-03-23T01:23:27;4.20;;;3.90;;
579;SDS011;276;48.392;9.950;2024-03-23T01:25:54;4.10;;;3.70;;
579;SDS011;276;48.392;9.950;2024-03-23T01:28:20;6.20;;;4.07;;
579;SDS011;276;48.392;9.950;2024-03-23T01:30:49;4.73;;;3.70;;
579;SDS011;276;48.392;9.950;2024-03-23T01:33:15;5.47;;;4.30;;
579;SDS011;276;48.392;9.950;2024-03-23T01:35:40;4.30;;;3.13;;
579;SDS011;276;48.392;9.950;2024-03-23T01:38:08;6.37;;;4.03;;
579;SDS011;276;48.392;9.950;2024-03-23T01:40:36;4.30;;;3.70;;
579;SDS011;276;48.392;9.950;2024-03-23T01:43:04;3.73;;;3.30;;
579;SDS011;276;48.392;9.950;2024-03-23T01:45:33;4.80;;;3.93;;
579;SDS011;276;48.392;9.950;2024-03-23T01:48:01;3.50;;;3.20;;
579;SDS011;276;48.392;9.950;2024-03-23T01:50:31;4.47;;;4.10;;
579;SDS011;276;48.392;9.950;2024-03-23T01:52:59;5.13;;;4.07;;
579;SDS011;276;48.392;9.950;2024-03-23T01:55:27;3.70;;;3.20;;
579;SDS011;276;48.392;9.950;2024-03-23T01:57:59;5.00;;;4.20;;
579;SDS011;276;48.392;9.950;2024-03-23T02:00:26;4.40;;;3.77;;
579;SDS011;276;48.392;9.950;2024-03-23T02:02:53;5.40;;;3.57;;
579;SDS011;276;48.392;9.950;2024-03-23T02:05:21;4.10;;;3.80;;
579;SDS011;276;48.392;9.950;2024-03-23T02:07:49;4.27;;;3.87;;
579;SDS011;276;48.392;9.950;2024-03-23T02:10:20;6.17;;;3.80;;
579;SDS011;276;48.392;9.950;2024-03-23T02:12:48;5.23;;;4.27;;
579;SDS011;276;48.392;9.950;2024-03-23T02:15:16;4.40;;;3.60;;
579;SDS011;276;48.392;9.950;2024-03-23T02:17:49;4.77;;;4.30;;
579;SDS011;276;48.392;9.950;2024-03-23T02:20:14;3.63;;;3.37;;
579;SDS011;276;48.392;9.950;2024-03-23T02:22:40;4.63;;;4.23;;
579;SDS011;276;48.392;9.950;2024-03-23T02:25:08;4.60;;;4.23;;
579;SDS011;276;48.392;9.950;2024-03-23T02:27:35;6.40;;;4.63;;
579;SDS011;276;48.392;9.950;2024-03-23T02:30:04;4.70;;;3.53;;
579;SDS011;276;48.392;9.950;2024-03-23T02:32:30;4.73;;;3.80;;
579;SDS011;276;48.392;9.950;2024-03-23T02:34:57;3.80;;;3.40;;
579;SDS011;276;48.392;9.950;2024-03-23T02:37:28;4.33;;;3.83;;
579;SDS011;276;48.392;9.950;2024-03-23T02:39:54;4.13;;;3.20;;
579;SDS011;276;48.392;9.950;2024-03-23T02:42:22;5.20;;;4.17;;
579;SDS011;276;48.392;9.950;2024-03-23T02:44:47;4.20;;;3.90;;
579;SDS011;276;48.392;9.950;2024-03-23T02:47:17;4.50;;;3.77;;
579;SDS011;276;48.392;9.950;2024-03-23T02:49:43;4.97;;;4.13;;
579;SDS011;276;48.392;9.950;2024-03-23T02:52:11;4.17;;;3.87;;
579;SDS011;276;48.392;9.950;2024-03-23T02:54:36;4.97;;;4.47;;
579;SDS011;276;48.392;9.950;2024-03-23T02:57:09;4.57;;;4.17;;
579;SDS011;276;48.392;9.950;2024-03-23T02:59:38;3.60;;;3.40;;
579;SDS011;276;48.392;9.950;2024-03-23T03:02:04;4.00;;;3.70;;
579;SDS011;276;48.392;9.950;2024-03-23T03:04:32;5.10;;;4.70;;
579;SDS011;276;48.392;9.950;2024-03-23T03:06:58;4.70;;;4.30;;
579;SDS011;276;48.392;9.950;2024-03-23T03:09:29;6.27;;;4.70;;
579;SDS011;276;48.392;9.950;2024-03-23T03:11:57;5.43;;;4.90;;
579;SDS011;276;48.392;9.950;2024-03-23T03:14:23;5.70;;;4.07;;
579;SDS011;276;48.392;9.950;2024-03-23T03:16:53;5.77;;;5.27;;
579;SDS011;276;48.392;9.950;2024-03-23T03:19:24;5.47;;;4.57;;
579;SDS011;276;48.392;9.950;2024-03-23T03:21:49;4.80;;;4.30;;
579;SDS011;276;48.392;9.950;2024-03-23T03:24:16;6.00;;;4.70;;
579;SDS011;276;48.392;9.950;2024-03-23T03:26:44;5.80;;;4.70;;
579;SDS011;276;48.392;9.950;2024-03-23T03:29:12;5.70;;;4.27;;
579;SDS011;276;48.392;9.950;2024-03-23T03:31:41;4.13;;;3.83;;
579;SDS011;276;48.392;9.950;2024-03-23T03:34:09;5.50;;;4.60;;
579;SDS011;276;48.392;9.950;2024-03-23T03:36:37;5.33;;;4.83;;
579;SDS011;276;48.392;9.950;2024-03-23T03:39:04;6.23;;;3.83;;
579;SDS011;276;48.392;9.950;2024-03-23T03:41:33;8.50;;;4.80;;
579;SDS011;276;48.392;9.950;2024-03-23T03:44:03;6.43;;;4.77;;
579;SDS011;276;48.392;9.950;2024-03-23T03:46:29;8.90;;;3.80;;
579;SDS011;276;48.392;9.950;2024-03-23T03:48:54;4.40;;;3.87;;
579;SDS011;276;48.392;9.950;2024-03-23T03:51:20;5.53;;;4.37;;
579;SDS011;276;48.392;9.950;2024-03-23T03:53:46;7.67;;;4.50;;
579;SDS011;276;48.392;9.950;2024-03-23T03:56:11;5.50;;;4.50;;
579;SDS011;276;48.392;9.950;2024-03-23T03:58:39;5.37;;;4.83;;
579;SDS011;276;48.392;9.950;2024-03-23T04:01:05;4.97;;;4.57;;
579;SDS011;276;48.392;9.950;2024-03-23T04:03:35;4.93;;;4.63;;
579;SDS011;276;48.392;9.950;2024-03-23T04:06:07;4.70;;;4.37;;
579;SDS011;276;48.392;9.950;2024-03-23T04:08:34;7.37;;;4.83;;
579;SDS011;276;48.392;9.950;2024-03-23T04:11:05;5.70;;;4.83;;
579;SDS011;276;48.392;9.950;2024-03-23T04:13:31;5.83;;;5.23;;
579;SDS011;276;48.392;9.950;2024-03-23T04:15:59;5.83;;;4.13;;
579;SDS011;276;48.392;9.950;2024-03-23T04:18:27;5.20;;;4.50;;
579;SDS011;276;48.392;9.950;2024-03-23T04:20:52;5.37;;;4.80;;
579;SDS011;276;48.392;9.950;2024-03-23T04:23:18;6.27;;;4.20;;
579;SDS011;276;48.392;9.950;2024-03-23T04:25:46;4.80;;;4.50;;
579;SDS011;276;48.392;9.950;2024-03-23T04:28:11;5.40;;;4.80;;
579;SDS011;276;48.392;9.950;2024-03-23T04:30:44;5.13;;;4.70;;
579;SDS011;276;48.392;9.950;2024-03-23T04:33:12;5.30;;;4.90;;
579;SDS011;276;48.392;9.950;2024-03-23T04:35:38;6.00;;;5.50;;
579;SDS011;276;48.392;9.950;2024-03-23T04:38:03;5.00;;;4.60;;
579;SDS011;276;48.392;9.950;2024-03-23T04:40:29;4.87;;;4.47;;
579;SDS011;276;48.392;9.950;2024-03-23T04:42:56;4.67;;;4.17;;
579;SDS011;276;48.392;9.950;2024-03-23T04:45:25;7.50;;;4.60;;
579;SDS011;276;48.392;9.950;2024-03-23T04:47:55;4.97;;;4.50;;
579;SDS011;276;48.392;9.950;2024-03-23T04:50:26;5.70;;;4.50;;
579;SDS011;276;48.392;9.950;2024-03-23T04:52:51;4.90;;;4.50;;
579;SDS011;276;48.392;9.950;2024-03-23T04:55:17;5.33;;;4.93;;
579;SDS011;276;48.392;9.950;2024-03-23T04:57:47;4.60;;;4.30;;
579;SDS011;276;48.392;9.950;2024-03-23T05:00:15;5.40;;;4.80;;
579;SDS011;276;48.392;9.950;2024-03-23T05:02:46;5.53;;;5.00;;
579;SDS011;276;48.392;9.950;2024-03-23T05:05:14;4.97;;;4.50;;
579;SDS011;276;48.392;9.950;2024-03-23T05:07:40;4.93;;;4.53;;
579;SDS011;276;48.392;9.950;2024-03-23T05:10:09;5.80;;;5.00;;
579;SDS011;276;48.392;9.950;2024-03-23T05:12:38;5.33;;;4.93;;
579;SDS011;276;48.392;9.950;2024-03-23T05:15:04;5.03;;;4.53;;
579;SDS011;276;48.392;9.950;2024-03-23T05:17:32;5.77;;;5.27;;
579;SDS011;276;48.392;9.950;2024-03-23T05:19:59;6.23;;;5.43;;
579;SDS011;276;48.392;9.950;2024-03-23T05:22:25;5.97;;;5.03;;
579;SDS011;276;48.392;9.950;2024-03-23T05:25:00;4.93;;;4.50;;
579;SDS011;276;48.392;9.950;2024-03-23T05:27:32;5.60;;;5.20;;
579;SDS011;276;48.392;9.950;2024-03-23T05:29:58;6.17;;;5.60;;
579;SDS011;276;48.392;9.950;2024-03-23T05:32:24;5.00;;;4.60;;
579;SDS011;276;48.392;9.950;2024-03-23T05:34:49;5.97;;;5.47;;
579;SDS011;276;48.392;9.950;2024-03-23T05:37:20;6.67;;;5.20;;
579;SDS011;276;48.392;9.950;2024-03-23T05:39:46;5.30;;;4.80;;
579;SDS011;276;48.392;9.950;2024-03-23T05:42:15;5.70;;;5.20;;
579;SDS011;276;48.392;9.950;2024-03-23T05:44:43;5.77;;;5.20;;
579;SDS011;276;48.392;9.950;2024-03-23T05:47:10;7.30;;;4.80;;
579;SDS011;276;48.392;9.950;2024-03-23T05:49:36;5.00;;;4.60;;
579;SDS011;276;48.392;9.950;2024-03-23T05:52:02;5.80;;;5.20;;
579;SDS011;276;48.392;9.950;2024-03-23T05:54:29;4.93;;;4.60;;
579;SDS011;276;48.392;9.950;2024-03-23T05:56:57;4.97;;;4.47;;
579;SDS011;276;48.392;9.950;2024-03-23T05:59:24;5.23;;;4.83;;
579;SDS011;276;48.392;9.950;2024-03-23T06:01:50;4.93;;;4.43;;
579;SDS011;276;48.392;9.950;2024-03-23T06:04:18;5.67;;;5.27;;
579;SDS011;276;48.392;9.950;2024-03-23T06:06:44;6.03;;;5.53;;
579;SDS011;276;48.392;9.950;2024-03-23T06:09:10;6.17;;;5.57;;
579;SDS011;276;48.392;9.950;2024-03-23T06:11:36;5.80;;;5.20;;
579;SDS011;276;48.392;9.950;2024-03-23T06:14:04;6.90;;;6.20;;
579;SDS011;276;48.392;9.950;2024-03-23T06:16:31;4.53;;;4.23;;
579;SDS011;276;48.392;9.950;2024-03-23T06:18:57;4.87;;;4.37;;
579;SDS011;276;48.392;9.950;2024-03-23T06:21:25;5.77;;;5.27;;
579;SDS011;276;48.392;9.950;2024-03-23T06:23:52;5.30;;;4.90;;
579;SDS011;276;48.392;9.950;2024-03-23T06:26:21;5.47;;;4.83;;
579;SDS011;276;48.392;9.950;2024-03-23T06:28:52;6.03;;;5.43;;
579;SDS011;276;48.392;9.950;2024-03-23T06:31:20;5.40;;;4.90;;
579;SDS011;276;48.392;9.950;2024-03-23T06:33:46;4.90;;;4.40;;
579;SDS011;276;48.392;9.950;2024-03-23T06:36:14;2.77;;;2.57;;
579;SDS011;276;48.392;9.950;2024-03-23T06:38:39;3.20;;;2.93;;
579;SDS011;276;48.392;9.950;2024-03-23T06:41:05;3.73;;;2.17;;
579;SDS011;276;48.392;9.950;2024-03-23T06:43:31;3.50;;;2.53;;
579;SDS011;276;48.392;9.950;2024-03-23T06:45:59;2.30;;;2.10;;
579;SDS011;276;48.392;9.950;2024-03-23T06:48:25;1.63;;;1.53;;
579;SDS011;276;48.392;9.950;2024-03-23T06:50:59;2.33;;;2.13;;
579;SDS011;276;48.392;9.950;2024-03-23T06:53:26;3.10;;;2.17;;
579;SDS011;276;48.392;9.950;2024-03-23T06:55:52;3.47;;;1.60;;
579;SDS011;276;48.392;9.950;2024-03-23T06:58:19;1.97;;;1.83;;
579;SDS011;276;48.392;9.950;2024-03-23T07:00:46;1.90;;;1.80;;
579;SDS011;276;48.392;9.950;2024-03-23T07:03:11;1.47;;;1.37;;
579;SDS011;276;48.392;9.950;2024-03-23T07:05:37;2.30;;;1.60;;
579;SDS011;276;48.392;9.950;2024-03-23T07:08:05;1.50;;;1.27;;
579;SDS011;276;48.392;9.950;2024-03-23T07:10:33;1.70;;;1.60;;
579;SDS011;276;48.392;9.950;2024-03-23T07:13:00;1.67;;;1.57;;
579;SDS011;276;48.392;9.950;2024-03-23T07:15:26;1.80;;;1.70;;
579;SDS011;276;48.392;9.950;2024-03-23T07:17:54;1.70;;;1.60;;
579;SDS011;276;48.392;9.950;2024-03-23T07:20:22;3.50;;;1.67;;
579;SDS011;276;48.392;9.950;2024-03-23T07:22:48;1.70;;;1.60;;
579;SDS011;276;48.392;9.950;2024-03-23T07:25:14;2.90;;;2.53;;
579;SDS011;276;48.392;9.950;2024-03-23T07:27:39;2.33;;;2.10;;
579;SDS011;276;48.392;9.950;2024-03-23T07:30:05;2.50;;;2.30;;
579;SDS011;276;48.392;9.950;2024-03-23T07:32:32;2.50;;;2.30;;
579;SDS011;276;48.392;9.950;2024-03-23T07:34:59;2.53;;;2.33;;
579;SDS011;276;48.392;9.950;2024-03-23T07:37:28;2.70;;;2.50;;
579;SDS011;276;48.392;9.950;2024-03-23T07:39:56;2.90;;;2.63;;
579;SDS011;276;48.392;9.950;2024-03-23T07:42:22;3.50;;;2.30;;
579;SDS011;276;48.392;9.950;2024-03-23T07:44:48;2.13;;;1.97;;
579;SDS011;276;48.392;9.950;2024-03-23T07:47:14;1.90;;;1.80;;
579;SDS011;276;48.392;9.950;2024-03-23T07:49:42;1.80;;;1.70;;
579;SDS011;276;48.392;9.950;2024-03-23T07:52:07;6.63;;;1.80;;
579;SDS011;276;48.392;9.950;2024-03-23T07:54:33;1.27;;;1.17;;
579;SDS011;276;48.392;9.950;2024-03-23T07:56:59;1.40;;;1.20;;
579;SDS011;276;48.392;9.950;2024-03-23T07:59:24;1.73;;;1.30;;
579;SDS011;276;48.392;9.950;2024-03-23T08:01:50;1.10;;;1.00;;
579;SDS011;276;48.392;9.950;2024-03-23T08:04:18;1.43;;;0.80;;
579;SDS011;276;48.392;9.950;2024-03-23T08:06:44;0.80;;;0.80;;
579;SDS011;276;48.392;9.950;2024-03-23T08:09:09;3.40;;;0.97;;
579;SDS011;276;48.392;9.950;2024-03-23T08:11:37;0.60;;;0.60;;
579;SDS011;276;48.392;9.950;2024-03-23T08:14:04;0.70;;;0.60;;
579;SDS011;276;48.392;9.950;2024-03-23T08:16:30;0.60;;;0.50;;
579;SDS011;276;48.392;9.950;2024-03-23T08:18:59;0.80;;;0.67;;
579;SDS011;276;48.392;9.950;2024-03-23T08:21:24;0.80;;;0.63;;
579;SDS011;276;48.392;9.950;2024-03-23T08:23:55;0.60;;;0.50;;
579;SDS011;276;48.392;9.950;2024-03-23T08:26:21;0.60;;;0.50;;
579;SDS011;276;48.392;9.950;2024-03-23T08:28:51;0.60;;;0.60;;
579;SDS011;276;48.392;9.950;2024-03-23T08:31:17;1.30;;;0.50;;
579;SDS011;276;48.392;9.950;2024-03-23T08:33:43;0.90;;;0.67;;
579;SDS011;276;48.392;9.950;2024-03-23T08:36:12;0.50;;;0.33;;
579;SDS011;276;48.392;9.950;2024-03-23T08:38:40;0.60;;;0.60;;
579;SDS011;276;48.392;9.950;2024-03-23T08:41:06;0.60;;;0.50;;
579;SDS011;276;48.392;9.950;2024-03-23T08:43:34;0.40;;;0.40;;
579;SDS011;276;48.392;9.950;2024-03-23T08:46:06;0.50;;;0.40;;
579;SDS011;276;48.392;9.950;2024-03-23T08:48:35;0.50;;;0.50;;
579;SDS011;276;48.392;9.950;2024-03-23T08:51:07;0.60;;;0.60;;
579;SDS011;276;48.392;9.950;2024-03-23T08:53:34;0.40;;;0.37;;
579;SDS011;276;48.392;9.950;2024-03-23T08:56:03;0.70;;;0.70;;
579;SDS011;276;48.392;9.950;2024-03-23T08:58:30;0.80;;;0.50;;
579;SDS011;276;48.392;9.950;2024-03-23T09:01:06;0.73;;;0.70;;
579;SDS011;276;48.392;9.950;2024-03-23T09:03:33;0.50;;;0.30;;
579;SDS011;276;48.392;9.950;2024-03-23T09:06:00;0.40;;;0.30;;
579;SDS011;276;48.392;9.950;2024-03-23T09:08:26;0.50;;;0.30;;
579;SDS011;276;48.392;9.950;2024-03-23T09:10:52;0.60;;;0.40;;
579;SDS011;276;48.392;9.950;2024-03-23T09:13:18;0.60;;;0.50;;
579;SDS011;276;48.392;9.950;2024-03-23T09:15:50;2.20;;;0.50;;
579;SDS011;276;48.392;9.950;2024-03-23T09:18:17;1.23;;;0.50;;
579;SDS011;276;48.392;9.950;2024-03-23T09:20:42;0.90;;;0.80;;
579;SDS011;276;48.392;9.950;2024-03-23T09:23:08;0.77;;;0.70;;
579;SDS011;276;48.392;9.950;2024-03-23T09:25:39;1.43;;;0.87;;
579;SDS011;276;48.392;9.950;2024-03-23T09:28:10;1.87;;;0.70;;
579;SDS011;276;48.392;9.950;2024-03-23T09:30:35;2.00;;;1.10;;
579;SDS011;276;48.392;9.950;2024-03-23T09:33:07;1.33;;;0.70;;
579;SDS011;276;48.392;9.950;2024-03-23T09:35:37;1.90;;;1.43;;
579;SDS011;276;48.392;9.950;2024-03-23T09:38:05;1.63;;;1.30;;
579;SDS011;276;48.392;9.950;2024-03-23T09:40:39;2.00;;;1.37;;
579;SDS011;276;48.392;9.950;2024-03-23T09:43:06;1.37;;;1.10;;
579;SDS011;276;48.392;9.950;2024-03-23T09:45:36;2.40;;;1.50;;
579;SDS011;276;48.392;9.950;2024-03-23T09:48:04;1.30;;;1.20;;
579;SDS011;276;48.392;9.950;2024-03-23T09:50:31;2.43;;;1.37;;
579;SDS011;276;48.392;9.950;2024-03-23T09:53:01;2.03;;;1.30;;
579;SDS011;276;48.392;9.950;2024-03-23T09:55:27;3.30;;;1.30;;
579;SDS011;276;48.392;9.950;2024-03-23T09:57:53;9.33;;;2.10;;
579;SDS011;276;48.392;9.950;2024-03-23T10:00:18;1.90;;;1.23;;
579;SDS011;276;48.392;9.950;2024-03-23T10:02:47;2.03;;;1.70;;
579;SDS011;276;48.392;9.950;2024-03-23T10:05:19;1.67;;;1.30;;
579;SDS011;276;48.392;9.950;2024-03-23T10:07:51;2.50;;;1.43;;
579;SDS011;276;48.392;9.950;2024-03-23T10:10:17;3.50;;;1.63;;
579;SDS011;276;48.392;9.950;2024-03-23T10:12:45;2.07;;;1.30;;
579;SDS011;276;48.392;9.950;2024-03-23T10:15:21;3.30;;;2.07;;
579;SDS011;276;48.392;9.950;2024-03-23T10:17:49;3.83;;;2.20;;
579;SDS011;276;48.392;9.950;2024-03-23T10:20:21;3.27;;;1.70;;
579;SDS011;276;48.392;9.950;2024-03-23T10:22:48;4.37;;;2.20;;
579;SDS011;276;48.392;9.950;2024-03-23T10:25:17;2.57;;;1.70;;
579;SDS011;276;48.392;9.950;2024-03-23T10:27:56;6.30;;;1.93;;
579;SDS011;276;48.392;9.950;2024-03-23T10:30:24;3.73;;;2.60;;
579;SDS011;276;48.392;9.950;2024-03-23T10:32:55;2.67;;;1.80;;
579;SDS011;276;48.392;9.950;2024-03-23T10:35:36;2.40;;;2.13;;
579;SDS011;276;48.392;9.950;2024-03-23T10:38:03;2.30;;;2.10;;
579;SDS011;276;48.392;9.950;2024-03-23T10:40:36;2.80;;;1.73;;
579;SDS011;276;48.392;9.950;2024-03-23T10:43:04;2.13;;;1.90;;
579;SDS011;276;48.392;9.950;2024-03-23T10:45:35;2.13;;;1.80;;
579;SDS011;276;48.392;9.950;2024-03-23T10:48:01;3.13;;;2.00;;
579;SDS011;276;48.392;9.950;2024-03-23T10:50:27;2.93;;;2.10;;
579;SDS011;276;48.392;9.950;2024-03-23T10:52:56;3.47;;;3.17;;
579;SDS011;276;48.392;9.950;2024-03-23T10:55:26;2.23;;;2.03;;
579;SDS011;276;48.392;9.950;2024-03-23T10:57:54;3.10;;;1.93;;
579;SDS011;276;48.392;9.950;2024-03-23T11:00:21;2.93;;;2.10;;
579;SDS011;276;48.392;9.950;2024-03-23T11:02:50;3.00;;;2.20;;
579;SDS011;276;48.392;9.950;2024-03-23T11:07:52;3.13;;;2.13;;
579;SDS011;276;48.392;9.950;2024-03-23T11:10:26;5.03;;;2.13;;
579;SDS011;276;48.392;9.950;2024-03-23T11:13:21;4.43;;;2.70;;
579;SDS011;276;48.392;9.950;2024-03-23T11:15:50;3.97;;;2.00;;
579;SDS011;276;48.392;9.950;2024-03-23T11:18:21;2.17;;;2.00;;
579;SDS011;276;48.392;9.950;2024-03-23T11:20:46;2.20;;;1.93;;
579;SDS011;276;48.392;9.950;2024-03-23T11:23:27;3.13;;;2.03;;
579;SDS011;276;48.392;9.950;2024-03-23T11:25:53;4.43;;;2.53;;
579;SDS011;276;48.392;9.950;2024-03-23T11:28:18;3.53;;;2.47;;
579;SDS011;276;48.392;9.950;2024-03-23T11:30:47;3.23;;;2.07;;
579;SDS011;276;48.392;9.950;2024-03-23T11:33:14;2.97;;;2.77;;
579;SDS011;276;48.392;9.950;2024-03-23T11:35:43;2.80;;;2.60;;
579;SDS011;276;48.392;9.950;2024-03-23T11:38:09;5.57;;;3.10;;
579;SDS011;276;48.392;9.950;2024-03-23T11:40:40;4.83;;;2.70;;
579;SDS011;276;48.392;9.950;2024-03-23T11:43:11;5.57;;;3.10;;
579;SDS011;276;48.392;9.950;2024-03-23T11:45:45;3.70;;;2.70;;
579;SDS011;276;48.392;9.950;2024-03-23T11:48:20;4.70;;;3.00;;
579;SDS011;276;48.392;9.950;2024-03-23T11:50:48;5.57;;;2.57;;
579;SDS011;276;48.392;9.950;2024-03-23T11:53:21;5.57;;;2.83;;
579;SDS011;276;48.392;9.950;2024-03-23T11:55:51;2.70;;;2.33;;
579;SDS011;276;48.392;9.950;2024-03-23T11:58:21;4.40;;;2.10;;
579;SDS011;276;48.392;9.950;2024-03-23T12:00:51;2.77;;;1.63;;
579;SDS011;276;48.392;9.950;2024-03-23T12:03:24;3.40;;;1.50;;
579;SDS011;276;48.392;9.950;2024-03-23T12:05:52;3.13;;;1.63;;
579;SDS011;276;48.392;9.950;2024-03-23T12:10:47;3.63;;;1.80;;
579;SDS011;276;48.392;9.950;2024-03-23T12:13:17;1.90;;;1.70;;
579;SDS011;276;48.392;9.950;2024-03-23T12:15:49;4.60;;;2.40;;
579;SDS011;276;48.392;9.950;2024-03-23T12:18:15;4.90;;;1.50;;
579;SDS011;276;48.392;9.950;2024-03-23T12:20:41;3.00;;;1.40;;
579;SDS011;276;48.392;9.950;2024-03-23T12:23:08;3.03;;;1.80;;
579;SDS011;276;48.392;9.950;2024-03-23T12:25:38;3.30;;;1.40;;
579;SDS011;276;48.392;9.950;2024-03-23T12:28:07;1.57;;;1.47;;
579;SDS011;276;48.392;9.950;2024-03-23T12:30:33;3.77;;;1.40;;
579;SDS011;276;48.392;9.950;2024-03-23T12:33:06;2.13;;;1.60;;
579;SDS011;276;48.392;9.950;2024-03-23T12:35:31;3.13;;;2.10;;
579;SDS011;276;48.392;9.950;2024-03-23T12:37:57;4.20;;;2.03;;
579;SDS011;276;48.392;9.950;2024-03-23T12:40:25;3.80;;;2.10;;
579;SDS011;276;48.392;9.950;2024-03-23T12:42:54;2.93;;;1.80;;
579;SDS011;276;48.392;9.950;2024-03-23T12:45:23;2.53;;;1.70;;
579;SDS011;276;48.392;9.950;2024-03-23T12:47:51;3.87;;;1.77;;
579;SDS011;276;48.392;9.950;2024-03-23T12:50:18;8.57;;;1.90;;
579;SDS011;276;48.392;9.950;2024-03-23T12:52:47;3.40;;;1.70;;
579;SDS011;276;48.392;9.950;2024-03-23T12:55:15;3.60;;;1.73;;
579;SDS011;276;48.392;9.950;2024-03-23T12:57:41;1.50;;;1.40;;
579;SDS011;276;48.392;9.950;2024-03-23T13:00:09;4.90;;;2.03;;
579;SDS011;276;48.392;9.950;2024-03-23T13:02:40;2.40;;;1.77;;
579;SDS011;276;48.392;9.950;2024-03-23T13:05:08;1.90;;;1.20;;
579;SDS011;276;48.392;9.950;2024-03-23T13:07:36;4.43;;;1.73;;
579;SDS011;276;48.392;9.950;2024-03-23T13:10:07;4.23;;;1.90;;
579;SDS011;276;48.392;9.950;2024-03-23T13:12:33;3.80;;;1.80;;
579;SDS011;276;48.392;9.950;2024-03-23T13:15:00;4.90;;;1.70;;
579;SDS011;276;48.392;9.950;2024-03-23T13:17:26;2.80;;;2.20;;
579;SDS011;276;48.392;9.950;2024-03-23T13:19:54;3.80;;;2.17;;
579;SDS011;276;48.392;9.950;2024-03-23T13:22:23;5.63;;;2.67;;
579;SDS011;276;48.392;9.950;2024-03-23T13:24:48;4.07;;;2.17;;
579;SDS011;276;48.392;9.950;2024-03-23T13:27:17;3.50;;;2.10;;
579;SDS011;276;48.392;9.950;2024-03-23T13:29:43;3.40;;;2.33;;
579;SDS011;276;48.392;9.950;2024-03-23T13:32:12;2.53;;;1.73;;
579;SDS011;276;48.392;9.950;2024-03-23T13:34:37;3.40;;;2.37;;
579;SDS011;276;48.392;9.950;2024-03-23T13:37:03;5.03;;;2.47;;
579;SDS011;276;48.392;9.950;2024-03-23T13:39:30;8.23;;;2.57;;
579;SDS011;276;48.392;9.950;2024-03-23T13:41:55;2.60;;;2.07;;
579;SDS011;276;48.392;9.950;2024-03-23T13:44:21;2.93;;;2.30;;
579;SDS011;276;48.392;9.950;2024-03-23T13:46:47;4.90;;;2.60;;
579;SDS011;276;48.392;9.950;2024-03-23T13:51:51;6.10;;;2.40;;
579;SDS011;276;48.392;9.950;2024-03-23T13:54:17;3.13;;;2.10;;
579;SDS011;276;48.392;9.950;2024-03-23T13:56:47;2.93;;;2.37;;
579;SDS011;276;48.392;9.950;2024-03-23T13:59:14;3.70;;;2.20;;
579;SDS011;276;48.392;9.950;2024-03-23T14:01:39;2.17;;;1.97;;
579;SDS011;276;48.392;9.950;2024-03-23T14:04:08;3.70;;;2.20;;
579;SDS011;276;48.392;9.950;2024-03-23T14:06:33;6.93;;;2.70;;
579;SDS011;276;48.392;9.950;2024-03-23T14:09:01;4.00;;;1.70;;
579;SDS011;276;48.392;9.950;2024-03-23T14:11:28;2.63;;;2.27;;
579;SDS011;276;48.392;9.950;2024-03-23T14:13:56;5.73;;;1.93;;
579;SDS011;276;48.392;9.950;2024-03-23T14:16:22;3.50;;;1.77;;
579;SDS011;276;48.392;9.950;2024-03-23T14:18:48;3.07;;;1.83;;
579;SDS011;276;48.392;9.950;2024-03-23T14:21:13;2.80;;;2.03;;
579;SDS011;276;48.392;9.950;2024-03-23T14:23:39;4.30;;;2.10;;
579;SDS011;276;48.392;9.950;2024-03-23T14:26:07;3.10;;;1.80;;
579;SDS011;276;48.392;9.950;2024-03-23T14:28:36;5.50;;;2.17;;
579;SDS011;276;48.392;9.950;2024-03-23T14:31:01;3.37;;;1.40;;
579;SDS011;276;48.392;9.950;2024-03-23T14:33:35;2.17;;;1.67;;
579;SDS011;276;48.392;9.950;2024-03-23T14:36:13;4.93;;;2.00;;
579;SDS011;276;48.392;9.950;2024-03-23T14:38:42;4.90;;;1.63;;
579;SDS011;276;48.392;9.950;2024-03-23T14:41:16;3.60;;;1.93;;
579;SDS011;276;48.392;9.950;2024-03-23T14:43:44;2.97;;;1.63;;
579;SDS011;276;48.392;9.950;2024-03-23T14:48:39;5.13;;;2.00;;
579;SDS011;276;48.392;9.950;2024-03-23T14:51:09;4.70;;;2.00;;
579;SDS011;276;48.392;9.950;2024-03-23T14:53:38;2.40;;;2.10;;
579;SDS011;276;48.392;9.950;2024-03-23T14:56:05;3.00;;;1.97;;
579;SDS011;276;48.392;9.950;2024-03-23T14:58:35;2.37;;;1.70;;
579;SDS011;276;48.392;9.950;2024-03-23T15:01:05;2.90;;;1.87;;
579;SDS011;276;48.392;9.950;2024-03-23T15:03:34;3.70;;;1.80;;
579;SDS011;276;48.392;9.950;2024-03-23T15:06:04;2.23;;;1.60;;
579;SDS011;276;48.392;9.950;2024-03-23T15:08:30;1.40;;;1.30;;
579;SDS011;276;48.392;9.950;2024-03-23T15:10:59;3.40;;;1.53;;
579;SDS011;276;48.392;9.950;2024-03-23T15:13:25;3.60;;;1.93;;
579;SDS011;276;48.392;9.950;2024-03-23T15:15:53;3.87;;;1.77;;
579;SDS011;276;48.392;9.950;2024-03-23T15:18:21;1.93;;;1.40;;
579;SDS011;276;48.392;9.950;2024-03-23T15:21:00;4.37;;;1.67;;
579;SDS011;276;48.392;9.950;2024-03-23T15:23:38;3.63;;;1.87;;
579;SDS011;276;48.392;9.950;2024-03-23T15:26:04;2.33;;;1.83;;
579;SDS011;276;48.392;9.950;2024-03-23T15:28:31;2.17;;;1.47;;
579;SDS011;276;48.392;9.950;2024-03-23T15:31:03;2.93;;;1.33;;
579;SDS011;276;48.392;9.950;2024-03-23T15:33:29;1.53;;;1.20;;
579;SDS011;276;48.392;9.950;2024-03-23T15:36:00;1.83;;;1.23;;
579;SDS011;276;48.392;9.950;2024-03-23T15:38:26;2.70;;;1.40;;
579;SDS011;276;48.392;9.950;2024-03-23T15:40:52;2.00;;;1.27;;
579;SDS011;276;48.392;9.950;2024-03-23T15:43:18;4.20;;;1.80;;
579;SDS011;276;48.392;9.950;2024-03-23T15:45:47;2.03;;;1.33;;
579;SDS011;276;48.392;9.950;2024-03-23T15:48:19;3.13;;;1.47;;
579;SDS011;276;48.392;9.950;2024-03-23T15:50:51;3.57;;;1.57;;
579;SDS011;276;48.392;9.950;2024-03-23T15:53:20;1.93;;;1.20;;
579;SDS011;276;48.392;9.950;2024-03-23T15:55:53;1.60;;;1.43;;
579;SDS011;276;48.392;9.950;2024-03-23T15:58:22;3.97;;;1.47;;
579;SDS011;276;48.392;9.950;2024-03-23T16:00:58;2.87;;;1.20;;
579;SDS011;276;48.392;9.950;2024-03-23T16:03:28;2.60;;;0.90;;
579;SDS011;276;48.392;9.950;2024-03-23T16:05:55;1.33;;;1.00;;
579;SDS011;276;48.392;9.950;2024-03-23T16:08:22;2.67;;;1.30;;
579;SDS011;276;48.392;9.950;2024-03-23T16:10:49;1.37;;;0.80;;
579;SDS011;276;48.392;9.950;2024-03-23T16:13:15;1.83;;;0.80;;
579;SDS011;276;48.392;9.950;2024-03-23T16:15:46;1.33;;;0.80;;
579;SDS011;276;48.392;9.950;2024-03-23T16:18:26;2.30;;;1.20;;
579;SDS011;276;48.392;9.950;2024-03-23T16:20:52;1.67;;;1.20;;
579;SDS011;276;48.392;9.950;2024-03-23T16:23:22;1.90;;;0.93;;
579;SDS011;276;48.392;9.950;2024-03-23T16:25:51;2.30;;;1.30;;
579;SDS011;276;48.392;9.950;2024-03-23T16:28:30;3.53;;;1.13;;
579;SDS011;276;48.392;9.950;2024-03-23T16:30:57;2.53;;;1.30;;
579;SDS011;276;48.392;9.950;2024-03-23T16:33:28;2.90;;;1.07;;
579;SDS011;276;48.392;9.950;2024-03-23T16:36:00;1.10;;;1.00;;
579;SDS011;276;48.392;9.950;2024-03-23T16:38:26;1.20;;;1.03;;
579;SDS011;276;48.392;9.950;2024-03-23T16:41:00;2.40;;;1.47;;
579;SDS011;276;48.392;9.950;2024-03-23T16:43:35;1.63;;;1.40;;
579;SDS011;276;48.392;9.950;2024-03-23T16:46:07;1.37;;;1.00;;
579;SDS011;276;48.392;9.950;2024-03-23T16:48:42;1.90;;;1.47;;
579;SDS011;276;48.392;9.950;2024-03-23T16:51:09;4.47;;;1.70;;
579;SDS011;276;48.392;9.950;2024-03-23T16:53:35;1.43;;;1.33;;